createdAt,value
2023-06-29T00:01:55.617Z,99.44
2023-06-29T00:04:26.802Z,99.60
2023-06-29T00:06:55.141Z,99.90
2023-06-29T00:09:23.097Z,99.83
2023-06-29T00:11:49.819Z,99.99
2023-06-29T00:14:16.527Z,100.00
2023-06-29T00:16:43.192Z,100.00
2023-06-29T00:19:09.735Z,100.00
2023-06-29T00:21:36.221Z,100.00
2023-06-29T00:24:03.766Z,100.00
2023-06-29T00:26:30.408Z,100.00
2023-06-29T00:28:57.698Z,100.00
2023-06-29T00:31:25.616Z,100.00
2023-06-29T00:33:52.347Z,100.00
2023-06-29T00:36:19.503Z,100.00
2023-06-29T00:38:46.050Z,100.00
2023-06-29T00:41:12.580Z,100.00
2023-06-29T00:43:39.133Z,100.00
2023-06-29T00:46:09.172Z,100.00
2023-06-29T00:48:39.076Z,100.00
2023-06-29T00:51:06.217Z,100.00
2023-06-29T00:53:32.930Z,100.00
2023-06-29T00:56:03.683Z,100.00
2023-06-29T00:58:30.767Z,100.00
2023-06-29T01:00:58.850Z,100.00
2023-06-29T01:03:25.631Z,100.00
2023-06-29T01:05:57.492Z,100.00
2023-06-29T01:08:30.342Z,100.00
2023-06-29T01:10:59.563Z,100.00
2023-06-29T01:13:28.385Z,100.00
2023-06-29T01:15:55.180Z,100.00
2023-06-29T01:18:25.204Z,100.00
2023-06-29T01:20:52.972Z,100.00
2023-06-29T01:23:30.191Z,100.00
2023-06-29T01:25:57.578Z,100.00
2023-06-29T01:28:24.072Z,100.00
2023-06-29T01:30:50.709Z,100.00
2023-06-29T01:33:19.993Z,100.00
2023-06-29T01:35:47.228Z,100.00
2023-06-29T01:38:23.485Z,100.00
2023-06-29T01:40:50.661Z,100.00
2023-06-29T01:43:19.159Z,100.00
2023-06-29T01:45:47.648Z,100.00
2023-06-29T01:48:15.095Z,100.00
2023-06-29T01:50:41.784Z,100.00
2023-06-29T01:53:08.407Z,100.00
2023-06-29T01:55:37.740Z,100.00
2023-06-29T01:58:04.453Z,100.00
2023-06-29T02:00:30.965Z,100.00
2023-06-29T02:02:57.669Z,100.00
2023-06-29T02:05:24.340Z,100.00
2023-06-29T02:07:51.177Z,100.00
2023-06-29T02:10:17.695Z,100.00
2023-06-29T02:12:44.262Z,100.00
2023-06-29T02:15:11.191Z,100.00
2023-06-29T02:17:37.972Z,100.00
2023-06-29T02:20:04.947Z,100.00
2023-06-29T02:22:31.439Z,100.00
2023-06-29T02:24:57.915Z,100.00
2023-06-29T02:27:24.556Z,100.00
2023-06-29T02:29:51.002Z,100.00
2023-06-29T02:32:17.454Z,100.00
2023-06-29T02:34:43.878Z,100.00
2023-06-29T02:37:10.470Z,100.00
2023-06-29T02:39:36.939Z,100.00
2023-06-29T02:42:03.521Z,100.00
2023-06-29T02:44:29.919Z,100.00
2023-06-29T02:46:56.557Z,100.00
2023-06-29T02:49:22.980Z,100.00
2023-06-29T02:51:49.461Z,100.00
2023-06-29T02:54:15.985Z,100.00
2023-06-29T02:56:42.585Z,100.00
2023-06-29T02:59:09.013Z,100.00
2023-06-29T03:01:35.583Z,100.00
2023-06-29T03:04:02.194Z,100.00
2023-06-29T03:06:28.752Z,100.00
2023-06-29T03:08:55.237Z,100.00
2023-06-29T03:11:21.679Z,100.00
2023-06-29T03:13:51.093Z,100.00
2023-06-29T03:16:18.132Z,100.00
2023-06-29T03:18:44.642Z,100.00
2023-06-29T03:21:17.946Z,100.00
2023-06-29T03:23:45.319Z,100.00
2023-06-29T03:26:11.889Z,100.00
2023-06-29T03:28:38.527Z,100.00
2023-06-29T03:31:05.002Z,100.00
2023-06-29T03:33:31.563Z,100.00
2023-06-29T03:35:58.292Z,100.00
2023-06-29T03:38:24.777Z,100.00
2023-06-29T03:40:51.259Z,100.00
2023-06-29T03:43:17.727Z,100.00
2023-06-29T03:45:44.581Z,100.00
2023-06-29T03:48:11.428Z,100.00
2023-06-29T03:50:37.989Z,100.00
2023-06-29T03:53:04.557Z,100.00
2023-06-29T03:55:31.042Z,100.00
2023-06-29T03:57:58.925Z,100.00
2023-06-29T04:00:25.477Z,100.00
2023-06-29T04:02:52.067Z,100.00
2023-06-29T04:05:18.726Z,100.00
2023-06-29T04:07:45.306Z,100.00
2023-06-29T04:10:11.814Z,100.00
2023-06-29T04:12:39.727Z,100.00
2023-06-29T04:15:06.905Z,100.00
2023-06-29T04:17:33.532Z,100.00
2023-06-29T04:20:00.055Z,100.00
2023-06-29T04:22:26.534Z,100.00
2023-06-29T04:24:53.403Z,100.00
2023-06-29T04:27:20.034Z,100.00
2023-06-29T04:29:46.633Z,100.00
2023-06-29T04:32:13.254Z,100.00
2023-06-29T04:34:39.748Z,100.00
2023-06-29T04:37:07.572Z,100.00
2023-06-29T04:39:34.165Z,100.00
2023-06-29T04:42:04.017Z,100.00
2023-06-29T04:44:33.544Z,100.00
2023-06-29T04:47:04.454Z,100.00
2023-06-29T04:49:37.750Z,100.00
2023-06-29T04:52:05.490Z,100.00
2023-06-29T04:54:32.074Z,100.00
2023-06-29T04:57:00.439Z,100.00
2023-06-29T04:59:29.772Z,100.00
2023-06-29T05:01:56.354Z,100.00
2023-06-29T05:04:22.985Z,100.00
2023-06-29T05:06:49.660Z,100.00
2023-06-29T05:09:16.973Z,100.00
2023-06-29T05:11:44.064Z,100.00
2023-06-29T05:14:10.936Z,100.00
2023-06-29T05:16:37.861Z,100.00
2023-06-29T05:19:05.246Z,100.00
2023-06-29T05:21:31.980Z,100.00
2023-06-29T05:23:58.500Z,100.00
2023-06-29T05:26:25.101Z,100.00
2023-06-29T05:29:04.332Z,100.00
2023-06-29T05:31:32.648Z,100.00
2023-06-29T05:33:59.174Z,100.00
2023-06-29T05:36:25.704Z,100.00
2023-06-29T05:38:52.210Z,100.00
2023-06-29T05:41:18.989Z,100.00
2023-06-29T05:43:45.429Z,100.00
2023-06-29T05:46:12.091Z,100.00
2023-06-29T05:48:38.598Z,100.00
2023-06-29T05:51:05.149Z,100.00
2023-06-29T05:53:32.709Z,100.00
2023-06-29T05:55:59.388Z,100.00
2023-06-29T05:58:25.914Z,100.00
2023-06-29T06:00:52.847Z,100.00
2023-06-29T06:03:21.053Z,100.00
2023-06-29T06:05:47.633Z,100.00
2023-06-29T06:08:15.843Z,100.00
2023-06-29T06:10:43.012Z,100.00
2023-06-29T06:13:10.406Z,100.00
2023-06-29T06:15:36.858Z,100.00
2023-06-29T06:18:03.633Z,100.00
2023-06-29T06:20:30.266Z,100.00
2023-06-29T06:22:56.805Z,100.00
2023-06-29T06:25:23.289Z,100.00
2023-06-29T06:27:50.123Z,100.00
2023-06-29T06:30:16.738Z,100.00
2023-06-29T06:32:43.328Z,100.00
2023-06-29T06:35:10.297Z,100.00
2023-06-29T06:37:37.895Z,100.00
2023-06-29T06:40:14.163Z,100.00
2023-06-29T06:42:40.743Z,100.00
2023-06-29T06:45:08.033Z,100.00
2023-06-29T06:47:36.744Z,100.00
2023-06-29T06:50:05.023Z,100.00
2023-06-29T06:52:31.754Z,100.00
2023-06-29T06:54:58.436Z,100.00
2023-06-29T06:57:25.611Z,100.00
2023-06-29T06:59:52.363Z,100.00
2023-06-29T07:02:19.138Z,100.00
2023-06-29T07:04:45.851Z,100.00
2023-06-29T07:07:12.559Z,100.00
2023-06-29T07:09:39.915Z,100.00
2023-06-29T07:12:07.565Z,99.60
2023-06-29T07:14:34.109Z,100.00
2023-06-29T07:17:00.769Z,99.92
2023-06-29T07:24:26.694Z,99.15
2023-06-29T07:26:53.340Z,98.64
2023-06-29T07:29:19.866Z,98.46
2023-06-29T07:31:47.073Z,98.61
2023-06-29T07:34:13.610Z,97.95
2023-06-29T07:36:40.393Z,98.73
2023-06-29T07:39:06.909Z,98.22
2023-06-29T07:41:33.465Z,98.14
2023-06-29T07:44:01.134Z,98.27
2023-06-29T07:46:27.865Z,97.22
2023-06-29T07:48:55.765Z,96.65
2023-06-29T07:51:22.969Z,96.70
2023-06-29T07:53:51.270Z,96.22
2023-06-29T07:56:18.374Z,95.37
2023-06-29T07:58:45.606Z,94.98
2023-06-29T08:01:12.235Z,94.28
2023-06-29T08:03:56.027Z,92.65
2023-06-29T08:08:54.813Z,92.74
2023-06-29T08:11:22.351Z,89.52
2023-06-29T08:13:48.852Z,90.92
2023-06-29T08:16:15.811Z,89.92
2023-06-29T08:18:42.559Z,89.65
2023-06-29T08:21:11.862Z,89.31
2023-06-29T08:23:38.580Z,86.77
2023-06-29T08:26:05.680Z,86.03
2023-06-29T08:28:32.404Z,86.48
2023-06-29T08:30:58.893Z,85.27
2023-06-29T08:33:25.569Z,86.92
2023-06-29T08:35:52.716Z,87.06
2023-06-29T08:38:19.354Z,86.84
2023-06-29T08:40:50.307Z,87.30
2023-06-29T08:43:18.775Z,89.01
2023-06-29T08:45:46.356Z,87.85
2023-06-29T08:48:13.867Z,88.95
2023-06-29T08:50:46.791Z,89.01
2023-06-29T08:53:14.865Z,88.04
2023-06-29T08:55:43.100Z,87.52
2023-06-29T08:58:09.877Z,87.75
2023-06-29T09:00:38.608Z,85.81
2023-06-29T09:03:05.245Z,85.46
2023-06-29T09:05:33.659Z,85.49
2023-06-29T09:08:00.325Z,82.66
2023-06-29T09:10:26.954Z,83.21
2023-06-29T09:12:54.211Z,80.98
2023-06-29T09:15:21.524Z,81.27
2023-06-29T09:17:55.639Z,80.16
2023-06-29T09:20:22.982Z,78.72
2023-06-29T09:22:53.378Z,78.50
2023-06-29T09:25:33.213Z,78.16
2023-06-29T09:28:09.036Z,77.76
2023-06-29T09:30:38.576Z,77.44
2023-06-29T09:33:07.684Z,78.17
2023-06-29T09:35:35.363Z,78.76
2023-06-29T09:38:04.788Z,79.07
2023-06-29T09:40:31.437Z,79.16
2023-06-29T09:43:02.567Z,78.28
2023-06-29T09:45:31.512Z,76.48
2023-06-29T09:50:28.415Z,77.46
2023-06-29T09:52:56.422Z,75.07
2023-06-29T09:55:30.768Z,75.81
2023-06-29T09:57:58.510Z,76.87
2023-06-29T10:00:25.093Z,76.26
2023-06-29T10:02:51.755Z,75.05
2023-06-29T10:05:18.246Z,75.60
2023-06-29T10:07:45.054Z,73.51
2023-06-29T10:10:16.122Z,72.92
2023-06-29T10:12:42.625Z,72.29
2023-06-29T10:15:10.737Z,72.08
2023-06-29T10:18:10.309Z,73.09
2023-06-29T10:20:39.225Z,74.26
2023-06-29T10:23:08.145Z,74.07
2023-06-29T10:25:38.127Z,73.60
2023-06-29T10:28:05.881Z,75.43
2023-06-29T10:30:46.993Z,75.87
2023-06-29T10:33:14.123Z,75.93
2023-06-29T10:35:41.746Z,73.68
2023-06-29T10:38:13.444Z,72.98
2023-06-29T10:40:48.233Z,74.68
2023-06-29T10:43:14.868Z,74.61
2023-06-29T10:45:41.845Z,71.70
2023-06-29T10:48:10.977Z,71.37
2023-06-29T10:50:40.796Z,69.89
2023-06-29T10:53:10.451Z,69.26
2023-06-29T10:55:53.367Z,67.26
2023-06-29T10:58:37.660Z,68.34
2023-06-29T11:01:04.152Z,65.21
2023-06-29T11:03:30.954Z,65.02
2023-06-29T11:05:59.506Z,64.92
2023-06-29T11:08:26.087Z,63.89
2023-06-29T11:10:52.992Z,64.62
2023-06-29T11:13:20.797Z,65.34
2023-06-29T11:15:56.231Z,63.65
2023-06-29T11:18:23.483Z,65.80
2023-06-29T11:20:49.937Z,66.57
2023-06-29T11:23:19.278Z,67.92
2023-06-29T11:25:45.786Z,67.34
2023-06-29T11:28:15.791Z,67.55
2023-06-29T11:30:42.966Z,67.50
2023-06-29T11:33:24.361Z,65.71
2023-06-29T11:35:58.588Z,66.16
2023-06-29T11:38:25.142Z,66.78
2023-06-29T11:41:06.084Z,66.51
2023-06-29T11:43:33.296Z,66.47
2023-06-29T11:46:00.257Z,65.90
2023-06-29T11:48:27.711Z,66.04
2023-06-29T11:50:58.257Z,66.05
2023-06-29T11:53:25.043Z,68.31
2023-06-29T11:55:52.398Z,67.13
2023-06-29T11:58:18.978Z,67.20
2023-06-29T12:00:45.509Z,67.35
2023-06-29T12:03:12.324Z,68.19
2023-06-29T12:05:43.488Z,68.90
2023-06-29T12:08:11.271Z,68.63
2023-06-29T12:10:40.049Z,68.16
2023-06-29T12:13:10.651Z,68.71
2023-06-29T12:15:37.197Z,67.65
2023-06-29T12:18:14.234Z,69.03
2023-06-29T12:20:47.359Z,68.71
2023-06-29T12:23:15.334Z,68.55
2023-06-29T12:25:47.393Z,68.95
2023-06-29T12:28:14.967Z,68.96
2023-06-29T12:30:41.589Z,68.97
2023-06-29T12:33:09.474Z,69.49
2023-06-29T12:35:36.112Z,68.09
2023-06-29T12:38:03.306Z,67.28
2023-06-29T12:40:32.012Z,67.59
2023-06-29T12:43:01.220Z,65.18
2023-06-29T12:45:28.422Z,61.33
2023-06-29T12:47:55.123Z,62.09
2023-06-29T12:50:21.604Z,61.42
2023-06-29T12:52:49.288Z,61.60
2023-06-29T12:55:16.381Z,61.92
2023-06-29T12:57:44.630Z,62.68
2023-06-29T13:00:11.786Z,63.87
2023-06-29T13:02:38.440Z,64.72
2023-06-29T13:05:05.369Z,65.63
2023-06-29T13:07:32.147Z,67.25
2023-06-29T13:09:59.475Z,70.13
2023-06-29T13:12:27.728Z,73.24
2023-06-29T13:14:54.238Z,74.91
2023-06-29T13:17:21.124Z,76.39
2023-06-29T13:19:49.194Z,76.95
2023-06-29T13:22:19.402Z,77.81
2023-06-29T13:24:47.820Z,77.08
2023-06-29T13:27:14.753Z,79.48
2023-06-29T13:29:41.330Z,77.71
2023-06-29T13:32:08.598Z,76.88
2023-06-29T13:34:35.473Z,76.13
2023-06-29T13:37:02.438Z,74.98
2023-06-29T13:39:29.875Z,72.67
2023-06-29T13:41:56.497Z,70.13
2023-06-29T13:44:23.156Z,69.54
2023-06-29T13:46:49.756Z,66.41
2023-06-29T13:49:16.652Z,63.28
2023-06-29T13:51:43.485Z,61.78
2023-06-29T13:54:10.205Z,58.32
2023-06-29T13:56:38.816Z,55.81
2023-06-29T13:59:09.642Z,56.39
2023-06-29T14:01:41.457Z,54.66
2023-06-29T14:04:10.835Z,55.15
2023-06-29T14:06:40.527Z,56.22
2023-06-29T14:09:08.614Z,54.88
2023-06-29T14:11:35.154Z,54.88
2023-06-29T14:14:01.741Z,54.66
2023-06-29T14:16:30.155Z,54.24
2023-06-29T14:18:58.173Z,55.59
2023-06-29T14:21:24.943Z,55.55
2023-06-29T14:23:51.558Z,56.41
2023-06-29T14:26:18.244Z,57.33
2023-06-29T14:28:44.745Z,58.30
2023-06-29T14:31:11.405Z,59.79
2023-06-29T14:33:38.389Z,60.26
2023-06-29T14:36:06.374Z,60.91
2023-06-29T14:38:33.068Z,61.50
2023-06-29T14:40:59.954Z,61.27
2023-06-29T14:43:26.545Z,61.48
2023-06-29T14:45:54.270Z,61.45
2023-06-29T14:48:20.966Z,63.29
2023-06-29T14:50:49.376Z,64.80
2023-06-29T14:53:16.696Z,65.77
2023-06-29T14:55:44.586Z,66.27
2023-06-29T14:58:11.715Z,66.25
2023-06-29T15:00:38.338Z,65.41
2023-06-29T15:03:05.607Z,65.06
2023-06-29T15:05:32.285Z,66.00
2023-06-29T15:07:59.191Z,66.57
2023-06-29T15:10:25.727Z,67.80
2023-06-29T15:12:52.265Z,68.04
2023-06-29T15:15:18.961Z,67.84
2023-06-29T15:17:45.577Z,68.01
2023-06-29T15:20:12.484Z,68.62
2023-06-29T15:22:39.005Z,68.54
2023-06-29T15:25:06.195Z,68.39
2023-06-29T15:27:32.956Z,66.95
2023-06-29T15:30:02.625Z,64.53
2023-06-29T15:32:29.112Z,63.18
2023-06-29T15:34:55.655Z,62.20
2023-06-29T15:37:22.151Z,62.52
2023-06-29T15:39:48.693Z,61.83
2023-06-29T15:42:16.522Z,61.29
2023-06-29T15:44:43.330Z,62.33
2023-06-29T15:47:09.852Z,63.37
2023-06-29T15:49:36.935Z,63.46
2023-06-29T15:52:04.252Z,63.02
2023-06-29T15:54:30.787Z,59.66
2023-06-29T15:56:57.459Z,59.50
2023-06-29T15:59:23.989Z,58.59
2023-06-29T16:01:51.798Z,58.72
2023-06-29T16:04:19.482Z,59.54
2023-06-29T16:06:46.689Z,59.56
2023-06-29T16:09:13.315Z,59.66
2023-06-29T16:11:39.956Z,60.17
2023-06-29T16:14:06.838Z,61.92
2023-06-29T16:16:33.539Z,62.37
2023-06-29T16:19:00.037Z,63.02
2023-06-29T16:21:28.885Z,63.41
2023-06-29T16:23:55.464Z,65.87
2023-06-29T16:26:22.040Z,68.40
2023-06-29T16:28:48.501Z,69.13
2023-06-29T16:31:15.354Z,70.35
2023-06-29T16:33:41.993Z,70.92
2023-06-29T16:36:08.896Z,72.34
2023-06-29T16:38:35.368Z,73.39
2023-06-29T16:41:01.842Z,74.31
2023-06-29T16:43:28.236Z,74.25
2023-06-29T16:45:54.938Z,75.67
2023-06-29T16:48:21.730Z,76.75
2023-06-29T16:50:48.344Z,77.19
2023-06-29T16:53:14.910Z,77.75
2023-06-29T16:55:41.348Z,78.81
2023-06-29T16:58:07.895Z,78.99
2023-06-29T17:00:34.412Z,79.33
2023-06-29T17:03:01.535Z,79.50
2023-06-29T17:05:28.128Z,79.38
2023-06-29T17:07:57.010Z,79.58
2023-06-29T17:10:23.886Z,79.84
2023-06-29T17:12:50.420Z,80.25
2023-06-29T17:15:17.126Z,80.44
2023-06-29T17:17:43.972Z,80.86
2023-06-29T17:20:11.289Z,81.15
2023-06-29T17:22:37.710Z,81.40
2023-06-29T17:25:04.462Z,81.62
2023-06-29T17:27:31.263Z,81.73
2023-06-29T17:29:57.816Z,81.42
2023-06-29T17:32:24.411Z,81.69
2023-06-29T17:34:50.940Z,81.62
2023-06-29T17:37:18.277Z,82.01
2023-06-29T17:39:44.805Z,82.56
2023-06-29T17:42:22.663Z,82.78
2023-06-29T17:44:49.769Z,83.69
2023-06-29T17:47:16.864Z,86.24
2023-06-29T17:49:44.253Z,89.10
2023-06-29T17:52:11.012Z,90.72
2023-06-29T17:54:39.095Z,91.31
2023-06-29T17:57:07.365Z,91.96
2023-06-29T17:59:35.522Z,92.55
2023-06-29T18:02:02.183Z,92.34
2023-06-29T18:04:31.703Z,92.78
2023-06-29T18:07:00.731Z,92.87
2023-06-29T18:09:27.626Z,93.28
2023-06-29T18:11:55.853Z,92.69
2023-06-29T18:14:22.384Z,91.28
2023-06-29T18:16:49.023Z,91.44
2023-06-29T18:19:15.706Z,90.34
2023-06-29T18:21:43.608Z,89.85
2023-06-29T18:24:10.211Z,89.17
2023-06-29T18:26:37.126Z,88.99
2023-06-29T18:29:03.874Z,88.29
2023-06-29T18:31:30.470Z,88.23
2023-06-29T18:33:57.393Z,88.71
2023-06-29T18:36:24.178Z,88.64
2023-06-29T18:38:51.064Z,89.00
2023-06-29T18:41:46.959Z,88.55
2023-06-29T18:44:16.082Z,88.65
2023-06-29T18:47:09.871Z,88.12
2023-06-29T18:49:50.646Z,87.49
2023-06-29T18:52:19.931Z,86.17
2023-06-29T18:54:46.813Z,84.31
2023-06-29T18:57:13.460Z,83.53
2023-06-29T18:59:40.097Z,83.54
2023-06-29T19:02:06.940Z,83.50
2023-06-29T19:04:33.659Z,82.41
2023-06-29T19:07:00.547Z,82.42
2023-06-29T19:09:28.879Z,82.19
2023-06-29T19:11:57.176Z,81.73
2023-06-29T19:14:23.733Z,82.01
2023-06-29T19:16:50.362Z,81.19
2023-06-29T19:19:17.182Z,81.14
2023-06-29T19:21:48.940Z,81.42
2023-06-29T19:24:16.689Z,80.81
2023-06-29T19:26:43.804Z,80.68
2023-06-29T19:29:11.746Z,80.55
2023-06-29T19:31:38.974Z,79.91
2023-06-29T19:34:06.963Z,79.83
2023-06-29T19:36:34.033Z,79.82
2023-06-29T19:39:00.849Z,80.25
2023-06-29T19:41:27.383Z,79.97
2023-06-29T19:43:53.908Z,79.95
2023-06-29T19:46:20.670Z,79.92
2023-06-29T19:48:47.706Z,80.07
2023-06-29T19:51:14.248Z,79.93
2023-06-29T19:53:41.935Z,79.92
2023-06-29T19:56:08.585Z,80.01
2023-06-29T19:58:35.135Z,79.69
2023-06-29T20:01:01.603Z,79.94
2023-06-29T20:03:28.205Z,80.18
2023-06-29T20:05:55.761Z,80.33
2023-06-29T20:08:22.235Z,80.48
2023-06-29T20:10:49.708Z,80.50
2023-06-29T20:13:16.327Z,80.73
2023-06-29T20:15:42.868Z,80.93
2023-06-29T20:18:09.993Z,81.13
2023-06-29T20:20:36.653Z,81.26
2023-06-29T20:23:03.178Z,81.64
2023-06-29T20:25:29.635Z,81.87
2023-06-29T20:27:56.436Z,82.70
2023-06-29T20:30:23.309Z,83.24
2023-06-29T20:32:49.897Z,83.41
2023-06-29T20:35:16.481Z,83.68
2023-06-29T20:37:43.180Z,83.69
2023-06-29T20:40:10.117Z,83.79
2023-06-29T20:42:38.671Z,83.32
2023-06-29T20:45:06.583Z,83.50
2023-06-29T20:47:33.211Z,83.22
2023-06-29T20:49:59.953Z,83.31
2023-06-29T20:52:26.430Z,83.38
2023-06-29T20:54:52.932Z,82.66
2023-06-29T20:57:23.367Z,82.13
2023-06-29T20:59:50.203Z,81.53
2023-06-29T21:02:18.583Z,81.01
2023-06-29T21:04:45.557Z,80.82
2023-06-29T21:07:12.553Z,80.31
2023-06-29T21:09:39.508Z,79.86
2023-06-29T21:12:06.574Z,79.20
2023-06-29T21:14:33.363Z,79.17
2023-06-29T21:17:00.199Z,78.54
2023-06-29T21:19:26.896Z,78.60
2023-06-29T21:21:53.640Z,78.25
2023-06-29T21:24:20.274Z,77.79
2023-06-29T21:26:46.946Z,77.98
2023-06-29T21:29:33.320Z,77.39
2023-06-29T21:32:03.989Z,77.25
2023-06-29T21:34:31.328Z,77.45
2023-06-29T21:36:58.472Z,78.02
2023-06-29T21:39:24.964Z,77.72
2023-06-29T21:41:51.446Z,77.98
2023-06-29T21:44:18.055Z,77.75
2023-06-29T21:46:44.729Z,77.86
2023-06-29T21:49:11.446Z,77.98
2023-06-29T21:51:38.285Z,77.67
2023-06-29T21:54:05.581Z,77.49
2023-06-29T21:56:32.155Z,77.25
2023-06-29T21:58:58.665Z,77.14
2023-06-29T22:01:25.189Z,77.09
2023-06-29T22:06:21.283Z,77.63
2023-06-29T22:08:49.848Z,77.72
2023-06-29T22:11:16.452Z,78.23
2023-06-29T22:13:44.739Z,78.59
2023-06-29T22:16:11.427Z,78.83
2023-06-29T22:18:37.953Z,79.15
2023-06-29T22:21:05.453Z,79.59
2023-06-29T22:23:31.926Z,80.23
2023-06-29T22:25:58.527Z,80.79
2023-06-29T22:28:25.036Z,80.96
2023-06-29T22:30:51.610Z,81.47
2023-06-29T22:33:18.187Z,81.87
2023-06-29T22:35:46.148Z,82.09
2023-06-29T22:38:12.884Z,82.48
2023-06-29T22:40:39.350Z,82.42
2023-06-29T22:43:05.776Z,82.48
2023-06-29T22:45:32.330Z,82.96
2023-06-29T22:47:59.598Z,82.81
2023-06-29T22:50:26.270Z,82.87
2023-06-29T22:52:52.855Z,83.24
2023-06-29T22:55:19.451Z,83.77
2023-06-29T22:57:46.726Z,83.93
2023-06-29T23:00:13.601Z,84.07
2023-06-29T23:02:40.437Z,84.14
2023-06-29T23:05:07.660Z,84.25
2023-06-29T23:07:34.581Z,84.33
2023-06-29T23:10:01.171Z,85.03
2023-06-29T23:12:27.662Z,85.66
2023-06-29T23:14:55.912Z,85.48
2023-06-29T23:17:26.808Z,85.86
2023-06-29T23:19:53.463Z,86.10
2023-06-29T23:22:20.034Z,86.13
2023-06-29T23:24:46.669Z,86.46
2023-06-29T23:27:13.781Z,86.74
2023-06-29T23:29:40.280Z,87.04
2023-06-29T23:32:08.518Z,88.04
2023-06-29T23:34:35.372Z,88.39
2023-06-29T23:37:02.011Z,88.56
2023-06-29T23:39:28.863Z,88.79
2023-06-29T23:41:55.493Z,88.94
2023-06-29T23:44:21.952Z,89.33
2023-06-29T23:46:50.885Z,89.52
2023-06-29T23:49:21.561Z,90.08
2023-06-29T23:51:51.182Z,90.84
2023-06-29T23:54:17.936Z,91.04
2023-06-29T23:56:45.993Z,91.41
2023-06-29T23:59:12.519Z,91.63
